Quines, Argentina
Current Conditions -  °F | °C
As of 1:00 PM on Saturday 22 Nov 2014 (Local Time) from SAOC Reporting Station
Clear Clear  
Wind Chill: 70°   Ceiling: Unl
Heat Index: 70°   Visibility: 6mi
Dew Point: 52°   Wind: 8mph
Humidity: 53%   Direction: 160°SSE
Pressure: 29.97"   Gusts: NA
Location:  32.22°S, 65.8°W
Report Text: SAOC 221600Z 16007KT CAVOK 21/11 Q1015
Loading
Personal Weather Stations






























Interactive Weather Map New forecast layout! Learn more

10-Day Weather Forecast

Advertisements
Track Severe Weather on mobile